sensor_id;sensor_type;location;lat;lon;timestamp;temperature;humidity
12438;DHT22;6283;51.330;12.374;2022-10-04T00:00:59;12.90;1.00
12438;DHT22;6283;51.330;12.374;2022-10-04T00:03:34;12.90;1.00
12438;DHT22;6283;51.330;12.374;2022-10-04T00:06:02;12.90;1.00
12438;DHT22;6283;51.330;12.374;2022-10-04T00:08:46;12.90;1.00
12438;DHT22;6283;51.330;12.374;2022-10-04T00:11:27;13.00;1.00
12438;DHT22;6283;51.330;12.374;2022-10-04T00:14:08;13.00;1.00
12438;DHT22;6283;51.330;12.374;2022-10-04T00:16:39;13.10;1.00
12438;DHT22;6283;51.330;12.374;2022-10-04T00:24:21;12.60;1.00
12438;DHT22;6283;51.330;12.374;2022-10-04T00:29:30;12.50;1.00
12438;DHT22;6283;51.330;12.374;2022-10-04T00:32:23;12.70;1.00
12438;DHT22;6283;51.330;12.374;2022-10-04T00:34:52;12.70;1.00
12438;DHT22;6283;51.330;12.374;2022-10-04T00:37:19;12.70;1.00
12438;DHT22;6283;51.330;12.374;2022-10-04T00:39:55;12.70;1.00
12438;DHT22;6283;51.330;12.374;2022-10-04T00:42:35;12.70;1.00
12438;DHT22;6283;51.330;12.374;2022-10-04T00:50:22;12.50;1.00
12438;DHT22;6283;51.330;12.374;2022-10-04T00:52:55;12.50;1.00
12438;DHT22;6283;51.330;12.374;2022-10-04T00:56:08;12.70;1.00
12438;DHT22;6283;51.330;12.374;2022-10-04T00:58:30;12.60;1.00
12438;DHT22;6283;51.330;12.374;2022-10-04T01:00:58;12.50;1.00
12438;DHT22;6283;51.330;12.374;2022-10-04T01:03:37;12.50;1.00
12438;DHT22;6283;51.330;12.374;2022-10-04T01:06:05;12.70;1.00
12438;DHT22;6283;51.330;12.374;2022-10-04T01:08:37;12.60;1.00
12438;DHT22;6283;51.330;12.374;2022-10-04T01:16:40;12.60;1.00
12438;DHT22;6283;51.330;12.374;2022-10-04T01:19:46;12.70;1.00
12438;DHT22;6283;51.330;12.374;2022-10-04T01:22:39;12.50;1.00
12438;DHT22;6283;51.330;12.374;2022-10-04T01:25:05;12.30;1.00
12438;DHT22;6283;51.330;12.374;2022-10-04T01:27:40;12.40;1.00
12438;DHT22;6283;51.330;12.374;2022-10-04T01:30:16;12.50;1.00
12438;DHT22;6283;51.330;12.374;2022-10-04T01:32:42;12.60;1.00
12438;DHT22;6283;51.330;12.374;2022-10-04T01:35:09;12.60;1.00
12438;DHT22;6283;51.330;12.374;2022-10-04T01:37:36;12.40;1.00
12438;DHT22;6283;51.330;12.374;2022-10-04T01:40:05;12.30;1.00
12438;DHT22;6283;51.330;12.374;2022-10-04T01:42:37;12.50;1.00
12438;DHT22;6283;51.330;12.374;2022-10-04T01:47:51;12.30;1.00
12438;DHT22;6283;51.330;12.374;2022-10-04T01:50:23;12.50;1.00
12438;DHT22;6283;51.330;12.374;2022-10-04T01:52:55;12.50;1.00
12438;DHT22;6283;51.330;12.374;2022-10-04T01:55:28;12.30;1.00
12438;DHT22;6283;51.330;12.374;2022-10-04T01:58:06;12.50;1.00
12438;DHT22;6283;51.330;12.374;2022-10-04T02:00:36;12.40;1.00
12438;DHT22;6283;51.330;12.374;2022-10-04T02:03:16;12.20;1.00
12438;DHT22;6283;51.330;12.374;2022-10-04T02:05:49;12.50;1.00
12438;DHT22;6283;51.330;12.374;2022-10-04T02:08:16;12.40;1.00
12438;DHT22;6283;51.330;12.374;2022-10-04T02:10:47;12.50;1.00
12438;DHT22;6283;51.330;12.374;2022-10-04T02:13:15;12.20;1.00
12438;DHT22;6283;51.330;12.374;2022-10-04T02:15:46;12.50;1.00
12438;DHT22;6283;51.330;12.374;2022-10-04T02:18:17;12.40;1.00
12438;DHT22;6283;51.330;12.374;2022-10-04T02:20:46;12.30;1.00
12438;DHT22;6283;51.330;12.374;2022-10-04T02:23:16;12.20;1.00
12438;DHT22;6283;51.330;12.374;2022-10-04T02:25:43;12.00;1.00
12438;DHT22;6283;51.330;12.374;2022-10-04T02:28:09;12.10;1.00
12438;DHT22;6283;51.330;12.374;2022-10-04T02:30:37;12.20;1.00
12438;DHT22;6283;51.330;12.374;2022-10-04T02:33:03;12.20;1.00
12438;DHT22;6283;51.330;12.374;2022-10-04T02:35:32;12.00;1.00
12438;DHT22;6283;51.330;12.374;2022-10-04T02:40:43;11.90;1.00
12438;DHT22;6283;51.330;12.374;2022-10-04T02:43:13;12.10;1.00
12438;DHT22;6283;51.330;12.374;2022-10-04T02:45:59;11.80;1.00
12438;DHT22;6283;51.330;12.374;2022-10-04T02:48:59;11.80;1.00
12438;DHT22;6283;51.330;12.374;2022-10-04T02:51:33;11.90;1.00
12438;DHT22;6283;51.330;12.374;2022-10-04T02:56:43;11.40;1.00
12438;DHT22;6283;51.330;12.374;2022-10-04T02:59:15;11.50;1.00
12438;DHT22;6283;51.330;12.374;2022-10-04T03:04:13;11.50;1.00
12438;DHT22;6283;51.330;12.374;2022-10-04T03:06:41;11.40;1.00
12438;DHT22;6283;51.330;12.374;2022-10-04T03:09:08;11.50;1.00
12438;DHT22;6283;51.330;12.374;2022-10-04T03:11:38;11.10;1.00
12438;DHT22;6283;51.330;12.374;2022-10-04T03:14:25;11.00;1.00
12438;DHT22;6283;51.330;12.374;2022-10-04T03:16:54;11.00;1.00
12438;DHT22;6283;51.330;12.374;2022-10-04T03:19:24;11.20;1.00
12438;DHT22;6283;51.330;12.374;2022-10-04T03:21:54;11.00;1.00
12438;DHT22;6283;51.330;12.374;2022-10-04T03:24:28;11.10;1.00
12438;DHT22;6283;51.330;12.374;2022-10-04T03:26:56;11.20;1.00
12438;DHT22;6283;51.330;12.374;2022-10-04T03:29:26;10.90;1.00
12438;DHT22;6283;51.330;12.374;2022-10-04T03:31:55;10.90;1.00
12438;DHT22;6283;51.330;12.374;2022-10-04T03:34:24;11.00;1.00
12438;DHT22;6283;51.330;12.374;2022-10-04T03:36:52;10.80;1.00
12438;DHT22;6283;51.330;12.374;2022-10-04T03:39:32;11.00;1.00
12438;DHT22;6283;51.330;12.374;2022-10-04T03:42:03;10.80;1.00
12438;DHT22;6283;51.330;12.374;2022-10-04T03:44:30;10.90;1.00
12438;DHT22;6283;51.330;12.374;2022-10-04T03:46:56;10.80;1.00
12438;DHT22;6283;51.330;12.374;2022-10-04T03:49:35;10.90;1.00
12438;DHT22;6283;51.330;12.374;2022-10-04T03:52:02;10.90;1.00
12438;DHT22;6283;51.330;12.374;2022-10-04T03:54:29;11.00;1.00
12438;DHT22;6283;51.330;12.374;2022-10-04T03:56:57;11.10;1.00
12438;DHT22;6283;51.330;12.374;2022-10-04T03:59:25;11.00;1.00
12438;DHT22;6283;51.330;12.374;2022-10-04T04:02:02;10.80;1.00
12438;DHT22;6283;51.330;12.374;2022-10-04T04:05:14;10.80;1.00
12438;DHT22;6283;51.330;12.374;2022-10-04T04:07:29;10.60;1.00
12438;DHT22;6283;51.330;12.374;2022-10-04T04:10:20;10.60;1.00
12438;DHT22;6283;51.330;12.374;2022-10-04T04:12:58;10.90;1.00
12438;DHT22;6283;51.330;12.374;2022-10-04T04:15:28;10.70;1.00
12438;DHT22;6283;51.330;12.374;2022-10-04T04:18:00;10.70;1.00
12438;DHT22;6283;51.330;12.374;2022-10-04T04:20:35;10.70;1.00
12438;DHT22;6283;51.330;12.374;2022-10-04T04:23:26;10.40;1.00
12438;DHT22;6283;51.330;12.374;2022-10-04T04:25:55;10.30;1.00
12438;DHT22;6283;51.330;12.374;2022-10-04T04:28:38;10.50;1.00
12438;DHT22;6283;51.330;12.374;2022-10-04T04:31:07;10.30;1.00
12438;DHT22;6283;51.330;12.374;2022-10-04T04:33:54;10.40;1.00
12438;DHT22;6283;51.330;12.374;2022-10-04T04:36:24;10.40;1.00
12438;DHT22;6283;51.330;12.374;2022-10-04T04:38:49;10.30;1.00
12438;DHT22;6283;51.330;12.374;2022-10-04T04:41:39;10.30;1.00
12438;DHT22;6283;51.330;12.374;2022-10-04T04:44:16;10.40;1.00
12438;DHT22;6283;51.330;12.374;2022-10-04T04:46:43;10.50;1.00
12438;DHT22;6283;51.330;12.374;2022-10-04T04:49:10;10.30;1.00
12438;DHT22;6283;51.330;12.374;2022-10-04T04:51:38;10.30;1.00
12438;DHT22;6283;51.330;12.374;2022-10-04T04:54:05;10.30;1.00
12438;DHT22;6283;51.330;12.374;2022-10-04T04:56:32;10.30;1.00
12438;DHT22;6283;51.330;12.374;2022-10-04T04:59:02;10.40;1.00
12438;DHT22;6283;51.330;12.374;2022-10-04T05:01:36;10.50;1.00
12438;DHT22;6283;51.330;12.374;2022-10-04T05:06:36;10.30;1.00
12438;DHT22;6283;51.330;12.374;2022-10-04T05:09:03;10.30;1.00
12438;DHT22;6283;51.330;12.374;2022-10-04T05:11:36;10.20;1.00
12438;DHT22;6283;51.330;12.374;2022-10-04T05:14:10;10.40;1.00
12438;DHT22;6283;51.330;12.374;2022-10-04T05:19:06;10.40;1.00
12438;DHT22;6283;51.330;12.374;2022-10-04T05:21:34;10.30;1.00
12438;DHT22;6283;51.330;12.374;2022-10-04T05:24:32;10.50;1.00
12438;DHT22;6283;51.330;12.374;2022-10-04T05:27:14;10.50;1.00
12438;DHT22;6283;51.330;12.374;2022-10-04T05:34:53;10.60;1.00
12438;DHT22;6283;51.330;12.374;2022-10-04T05:42:45;10.40;1.00
12438;DHT22;6283;51.330;12.374;2022-10-04T05:45:22;10.40;1.00
12438;DHT22;6283;51.330;12.374;2022-10-04T05:47:53;10.60;1.00
12438;DHT22;6283;51.330;12.374;2022-10-04T05:50:36;10.60;1.00
12438;DHT22;6283;51.330;12.374;2022-10-04T05:59:12;10.90;1.00
12438;DHT22;6283;51.330;12.374;2022-10-04T06:04:26;11.10;1.00
12438;DHT22;6283;51.330;12.374;2022-10-04T06:06:59;10.70;1.00
12438;DHT22;6283;51.330;12.374;2022-10-04T06:20:06;11.00;1.00
12438;DHT22;6283;51.330;12.374;2022-10-04T06:22:42;11.20;1.00
12438;DHT22;6283;51.330;12.374;2022-10-04T06:25:14;11.30;1.00
12438;DHT22;6283;51.330;12.374;2022-10-04T06:27:54;11.30;1.00
12438;DHT22;6283;51.330;12.374;2022-10-04T06:30:37;11.10;1.00
12438;DHT22;6283;51.330;12.374;2022-10-04T06:33:53;11.30;1.00
12438;DHT22;6283;51.330;12.374;2022-10-04T06:36:41;11.10;1.00
12438;DHT22;6283;51.330;12.374;2022-10-04T06:39:30;11.50;1.00
12438;DHT22;6283;51.330;12.374;2022-10-04T06:42:19;11.40;1.00
12438;DHT22;6283;51.330;12.374;2022-10-04T06:45:02;11.40;1.00
12438;DHT22;6283;51.330;12.374;2022-10-04T06:47:53;11.30;1.00
12438;DHT22;6283;51.330;12.374;2022-10-04T06:51:11;11.60;1.00
12438;DHT22;6283;51.330;12.374;2022-10-04T07:01:59;11.60;1.00
12438;DHT22;6283;51.330;12.374;2022-10-04T07:04:40;11.80;1.00
12438;DHT22;6283;51.330;12.374;2022-10-04T07:10:28;12.00;1.00
12438;DHT22;6283;51.330;12.374;2022-10-04T07:13:09;12.10;1.00
12438;DHT22;6283;51.330;12.374;2022-10-04T07:15:59;12.30;1.00
12438;DHT22;6283;51.330;12.374;2022-10-04T07:18:33;12.40;1.00
12438;DHT22;6283;51.330;12.374;2022-10-04T07:21:20;12.50;1.00
12438;DHT22;6283;51.330;12.374;2022-10-04T07:23:58;12.40;1.00
12438;DHT22;6283;51.330;12.374;2022-10-04T07:26:33;12.60;1.00
12438;DHT22;6283;51.330;12.374;2022-10-04T07:29:06;12.60;1.00
12438;DHT22;6283;51.330;12.374;2022-10-04T07:34:37;12.70;1.00
12438;DHT22;6283;51.330;12.374;2022-10-04T07:37:09;12.80;1.00
12438;DHT22;6283;51.330;12.374;2022-10-04T07:39:53;12.70;1.00
12438;DHT22;6283;51.330;12.374;2022-10-04T07:42:31;13.20;1.00
12438;DHT22;6283;51.330;12.374;2022-10-04T07:45:20;12.90;1.00
12438;DHT22;6283;51.330;12.374;2022-10-04T07:47:48;13.20;1.00
12438;DHT22;6283;51.330;12.374;2022-10-04T07:50:23;13.30;1.00
12438;DHT22;6283;51.330;12.374;2022-10-04T07:53:20;13.60;1.00
12438;DHT22;6283;51.330;12.374;2022-10-04T07:55:55;13.40;1.00
12438;DHT22;6283;51.330;12.374;2022-10-04T08:12:00;13.60;1.00
12438;DHT22;6283;51.330;12.374;2022-10-04T08:17:25;13.70;1.00
12438;DHT22;6283;51.330;12.374;2022-10-04T08:22:57;13.70;1.00
12438;DHT22;6283;51.330;12.374;2022-10-04T08:25:33;13.90;1.00
12438;DHT22;6283;51.330;12.374;2022-10-04T08:33:40;14.10;1.00
12438;DHT22;6283;51.330;12.374;2022-10-04T08:38:57;14.10;1.00
12438;DHT22;6283;51.330;12.374;2022-10-04T08:50:22;14.20;1.00
12438;DHT22;6283;51.330;12.374;2022-10-04T08:56:17;14.20;1.00
12438;DHT22;6283;51.330;12.374;2022-10-04T09:05:01;14.40;1.00
12438;DHT22;6283;51.330;12.374;2022-10-04T09:13:35;14.60;1.00
12438;DHT22;6283;51.330;12.374;2022-10-04T09:16:14;14.70;1.00
12438;DHT22;6283;51.330;12.374;2022-10-04T09:19:18;14.70;1.00
12438;DHT22;6283;51.330;12.374;2022-10-04T09:30:26;14.70;1.00
12438;DHT22;6283;51.330;12.374;2022-10-04T09:47:43;14.70;1.00
12438;DHT22;6283;51.330;12.374;2022-10-04T10:01:39;14.80;1.00
12438;DHT22;6283;51.330;12.374;2022-10-04T10:04:05;14.80;1.00
12438;DHT22;6283;51.330;12.374;2022-10-04T10:12:46;15.10;1.00
12438;DHT22;6283;51.330;12.374;2022-10-04T10:15:59;15.50;1.00
12438;DHT22;6283;51.330;12.374;2022-10-04T10:18:39;15.40;1.00
12438;DHT22;6283;51.330;12.374;2022-10-04T10:24:08;15.50;1.00
12438;DHT22;6283;51.330;12.374;2022-10-04T10:29:42;15.40;1.00
12438;DHT22;6283;51.330;12.374;2022-10-04T10:38:30;15.50;1.00
12438;DHT22;6283;51.330;12.374;2022-10-04T10:41:17;15.50;1.00
12438;DHT22;6283;51.330;12.374;2022-10-04T10:49:18;15.70;1.00
12438;DHT22;6283;51.330;12.374;2022-10-04T10:57:52;15.90;1.00
12438;DHT22;6283;51.330;12.374;2022-10-04T11:00:22;15.90;1.00
12438;DHT22;6283;51.330;12.374;2022-10-04T11:23:50;17.30;1.00
12438;DHT22;6283;51.330;12.374;2022-10-04T11:43:38;17.70;1.00
12438;DHT22;6283;51.330;12.374;2022-10-04T11:46:43;18.10;1.00
12438;DHT22;6283;51.330;12.374;2022-10-04T11:58:04;18.90;1.00
12438;DHT22;6283;51.330;12.374;2022-10-04T12:11:57;19.90;1.00
12438;DHT22;6283;51.330;12.374;2022-10-04T12:32:18;20.90;1.00
12438;DHT22;6283;51.330;12.374;2022-10-04T12:37:30;20.70;1.00
12438;DHT22;6283;51.330;12.374;2022-10-04T12:43:05;20.70;1.00
12438;DHT22;6283;51.330;12.374;2022-10-04T12:45:45;20.80;1.00
12438;DHT22;6283;51.330;12.374;2022-10-04T12:49:01;21.00;1.00
12438;DHT22;6283;51.330;12.374;2022-10-04T13:05:39;21.90;1.00
12438;DHT22;6283;51.330;12.374;2022-10-04T13:10:31;21.80;1.00
12438;DHT22;6283;51.330;12.374;2022-10-04T13:19:03;22.00;1.00
12438;DHT22;6283;51.330;12.374;2022-10-04T13:21:50;22.10;1.00
12438;DHT22;6283;51.330;12.374;2022-10-04T13:27:00;22.10;1.00
12438;DHT22;6283;51.330;12.374;2022-10-04T13:29:37;21.90;1.00
12438;DHT22;6283;51.330;12.374;2022-10-04T13:34:55;21.70;1.00
12438;DHT22;6283;51.330;12.374;2022-10-04T13:40:27;21.60;1.00
12438;DHT22;6283;51.330;12.374;2022-10-04T13:51:30;22.10;1.00
12438;DHT22;6283;51.330;12.374;2022-10-04T13:54:10;22.30;1.00
12438;DHT22;6283;51.330;12.374;2022-10-04T13:56:57;22.40;1.00
12438;DHT22;6283;51.330;12.374;2022-10-04T14:11:32;23.70;1.00
12438;DHT22;6283;51.330;12.374;2022-10-04T14:30:11;24.80;1.00
12438;DHT22;6283;51.330;12.374;2022-10-04T14:33:58;24.90;1.00
12438;DHT22;6283;51.330;12.374;2022-10-04T14:38:53;24.70;1.00
12438;DHT22;6283;51.330;12.374;2022-10-04T14:44:23;24.70;1.00
12438;DHT22;6283;51.330;12.374;2022-10-04T14:49:47;24.90;1.00
12438;DHT22;6283;51.330;12.374;2022-10-04T14:52:53;25.00;1.00
12438;DHT22;6283;51.330;12.374;2022-10-04T14:58:01;25.20;1.00
12438;DHT22;6283;51.330;12.374;2022-10-04T15:00:47;25.30;1.00
12438;DHT22;6283;51.330;12.374;2022-10-04T15:06:20;25.40;1.00
12438;DHT22;6283;51.330;12.374;2022-10-04T15:14:05;25.30;1.00
12438;DHT22;6283;51.330;12.374;2022-10-04T15:16:54;25.20;1.00
12438;DHT22;6283;51.330;12.374;2022-10-04T15:24:29;25.00;1.00
12438;DHT22;6283;51.330;12.374;2022-10-04T15:29:36;24.80;1.00
12438;DHT22;6283;51.330;12.374;2022-10-04T15:43:44;25.10;1.00
12438;DHT22;6283;51.330;12.374;2022-10-04T15:52:14;25.10;1.00
12438;DHT22;6283;51.330;12.374;2022-10-04T15:55:11;25.10;1.00
12438;DHT22;6283;51.330;12.374;2022-10-04T16:00:26;24.80;1.00
12438;DHT22;6283;51.330;12.374;2022-10-04T16:03:23;24.80;1.00
12438;DHT22;6283;51.330;12.374;2022-10-04T16:06:03;24.70;1.00
12438;DHT22;6283;51.330;12.374;2022-10-04T16:08:46;24.60;1.00
12438;DHT22;6283;51.330;12.374;2022-10-04T16:21:49;24.10;1.00
12438;DHT22;6283;51.330;12.374;2022-10-04T16:32:27;22.80;1.00
12438;DHT22;6283;51.330;12.374;2022-10-04T16:35:06;22.30;1.00
12438;DHT22;6283;51.330;12.374;2022-10-04T16:56:29;19.80;1.00
12438;DHT22;6283;51.330;12.374;2022-10-04T16:59:11;19.50;1.00
12438;DHT22;6283;51.330;12.374;2022-10-04T17:04:40;19.10;1.00
12438;DHT22;6283;51.330;12.374;2022-10-04T17:15:21;18.30;1.00
12438;DHT22;6283;51.330;12.374;2022-10-04T17:29:23;17.30;1.00
12438;DHT22;6283;51.330;12.374;2022-10-04T17:32:07;17.20;1.00
12438;DHT22;6283;51.330;12.374;2022-10-04T17:42:58;16.50;1.00
12438;DHT22;6283;51.330;12.374;2022-10-04T17:48:20;16.30;1.00
12438;DHT22;6283;51.330;12.374;2022-10-04T17:51:36;16.20;1.00
12438;DHT22;6283;51.330;12.374;2022-10-04T17:54:25;16.10;1.00
12438;DHT22;6283;51.330;12.374;2022-10-04T17:57:16;16.10;1.00
12438;DHT22;6283;51.330;12.374;2022-10-04T17:59:51;16.00;1.00
12438;DHT22;6283;51.330;12.374;2022-10-04T18:02:23;15.90;1.00
12438;DHT22;6283;51.330;12.374;2022-10-04T18:05:01;15.90;1.00
12438;DHT22;6283;51.330;12.374;2022-10-04T18:07:45;15.90;1.00
12438;DHT22;6283;51.330;12.374;2022-10-04T18:10:30;15.80;1.00
12438;DHT22;6283;51.330;12.374;2022-10-04T18:15:47;15.80;1.00
12438;DHT22;6283;51.330;12.374;2022-10-04T18:18:20;15.70;1.00
12438;DHT22;6283;51.330;12.374;2022-10-04T18:23:30;15.50;1.00
12438;DHT22;6283;51.330;12.374;2022-10-04T18:26:02;15.40;1.00
12438;DHT22;6283;51.330;12.374;2022-10-04T18:28:29;15.40;1.00
12438;DHT22;6283;51.330;12.374;2022-10-04T18:31:10;15.40;1.00
12438;DHT22;6283;51.330;12.374;2022-10-04T18:36:17;15.40;1.00
12438;DHT22;6283;51.330;12.374;2022-10-04T18:38:45;15.30;1.00
12438;DHT22;6283;51.330;12.374;2022-10-04T18:41:22;15.30;1.00
12438;DHT22;6283;51.330;12.374;2022-10-04T18:44:14;15.20;1.00
12438;DHT22;6283;51.330;12.374;2022-10-04T18:46:41;15.10;1.00
12438;DHT22;6283;51.330;12.374;2022-10-04T18:49:20;15.20;1.00
12438;DHT22;6283;51.330;12.374;2022-10-04T19:05:30;14.70;1.00
12438;DHT22;6283;51.330;12.374;2022-10-04T19:08:58;14.70;1.00
12438;DHT22;6283;51.330;12.374;2022-10-04T19:14:45;14.40;1.00
12438;DHT22;6283;51.330;12.374;2022-10-04T19:19:59;14.30;1.00
12438;DHT22;6283;51.330;12.374;2022-10-04T19:25:42;14.20;1.00
12438;DHT22;6283;51.330;12.374;2022-10-04T19:28:19;14.10;1.00
12438;DHT22;6283;51.330;12.374;2022-10-04T19:30:50;14.40;1.00
12438;DHT22;6283;51.330;12.374;2022-10-04T19:33:25;14.20;1.00
12438;DHT22;6283;51.330;12.374;2022-10-04T19:41:52;14.00;1.00
12438;DHT22;6283;51.330;12.374;2022-10-04T19:44:43;14.00;1.00
12438;DHT22;6283;51.330;12.374;2022-10-04T19:52:54;14.00;1.00
12438;DHT22;6283;51.330;12.374;2022-10-04T19:55:54;13.80;1.00
12438;DHT22;6283;51.330;12.374;2022-10-04T19:58:28;14.00;1.00
12438;DHT22;6283;51.330;12.374;2022-10-04T20:00:55;13.90;1.00
12438;DHT22;6283;51.330;12.374;2022-10-04T20:03:20;13.70;1.00
12438;DHT22;6283;51.330;12.374;2022-10-04T20:05:48;13.50;1.00
12438;DHT22;6283;51.330;12.374;2022-10-04T20:11:22;13.40;1.00
12438;DHT22;6283;51.330;12.374;2022-10-04T20:14:41;13.80;1.00
12438;DHT22;6283;51.330;12.374;2022-10-04T20:34:59;13.50;1.00
12438;DHT22;6283;51.330;12.374;2022-10-04T20:40:41;13.40;1.00
12438;DHT22;6283;51.330;12.374;2022-10-04T20:45:50;13.20;1.00
12438;DHT22;6283;51.330;12.374;2022-10-04T20:48:19;13.30;1.00
12438;DHT22;6283;51.330;12.374;2022-10-04T20:50:46;13.20;1.00
12438;DHT22;6283;51.330;12.374;2022-10-04T20:55:42;13.20;1.00
12438;DHT22;6283;51.330;12.374;2022-10-04T20:58:31;13.20;1.00
12438;DHT22;6283;51.330;12.374;2022-10-04T21:01:04;13.20;1.00
12438;DHT22;6283;51.330;12.374;2022-10-04T21:03:44;13.10;1.00
12438;DHT22;6283;51.330;12.374;2022-10-04T21:06:10;13.10;1.00
12438;DHT22;6283;51.330;12.374;2022-10-04T21:08:37;13.00;1.00
12438;DHT22;6283;51.330;12.374;2022-10-04T21:11:18;13.10;1.00
12438;DHT22;6283;51.330;12.374;2022-10-04T21:19:52;13.10;1.00
12438;DHT22;6283;51.330;12.374;2022-10-04T21:27:31;12.80;1.00
12438;DHT22;6283;51.330;12.374;2022-10-04T21:29:58;12.80;1.00
12438;DHT22;6283;51.330;12.374;2022-10-04T21:32:25;12.80;1.00
12438;DHT22;6283;51.330;12.374;2022-10-04T21:34:51;12.80;1.00
12438;DHT22;6283;51.330;12.374;2022-10-04T21:37:17;12.80;1.00
12438;DHT22;6283;51.330;12.374;2022-10-04T21:39:43;12.80;1.00
12438;DHT22;6283;51.330;12.374;2022-10-04T21:42:09;13.00;1.00
12438;DHT22;6283;51.330;12.374;2022-10-04T21:44:35;12.90;1.00
12438;DHT22;6283;51.330;12.374;2022-10-04T21:47:00;12.90;1.00
12438;DHT22;6283;51.330;12.374;2022-10-04T21:49:26;12.90;1.00
12438;DHT22;6283;51.330;12.374;2022-10-04T21:51:51;12.80;1.00
12438;DHT22;6283;51.330;12.374;2022-10-04T21:54:17;12.80;1.00
12438;DHT22;6283;51.330;12.374;2022-10-04T21:56:42;13.00;1.00
12438;DHT22;6283;51.330;12.374;2022-10-04T21:59:08;12.70;1.00
12438;DHT22;6283;51.330;12.374;2022-10-04T22:01:34;12.80;1.00
12438;DHT22;6283;51.330;12.374;2022-10-04T22:04:00;12.60;1.00
12438;DHT22;6283;51.330;12.374;2022-10-04T22:06:25;12.80;1.00
12438;DHT22;6283;51.330;12.374;2022-10-04T22:08:51;12.60;1.00
12438;DHT22;6283;51.330;12.374;2022-10-04T22:11:17;12.60;1.00
12438;DHT22;6283;51.330;12.374;2022-10-04T22:13:42;12.50;1.00
12438;DHT22;6283;51.330;12.374;2022-10-04T22:16:09;12.50;1.00
12438;DHT22;6283;51.330;12.374;2022-10-04T22:18:35;12.40;1.00
12438;DHT22;6283;51.330;12.374;2022-10-04T22:21:01;12.50;1.00
12438;DHT22;6283;51.330;12.374;2022-10-04T22:23:28;12.50;1.00
12438;DHT22;6283;51.330;12.374;2022-10-04T22:25:58;12.30;1.00
12438;DHT22;6283;51.330;12.374;2022-10-04T22:28:25;12.20;1.00
12438;DHT22;6283;51.330;12.374;2022-10-04T22:30:52;12.40;1.00
12438;DHT22;6283;51.330;12.374;2022-10-04T22:33:34;12.40;1.00
12438;DHT22;6283;51.330;12.374;2022-10-04T22:41:29;12.40;1.00
12438;DHT22;6283;51.330;12.374;2022-10-04T22:43:57;12.40;1.00
12438;DHT22;6283;51.330;12.374;2022-10-04T22:46:28;12.30;1.00
12438;DHT22;6283;51.330;12.374;2022-10-04T22:48:56;12.40;1.00
12438;DHT22;6283;51.330;12.374;2022-10-04T22:51:22;12.30;1.00
12438;DHT22;6283;51.330;12.374;2022-10-04T22:53:48;12.50;1.00
12438;DHT22;6283;51.330;12.374;2022-10-04T22:56:14;12.20;1.00
12438;DHT22;6283;51.330;12.374;2022-10-04T22:58:40;12.20;1.00
12438;DHT22;6283;51.330;12.374;2022-10-04T23:01:15;12.40;1.00
12438;DHT22;6283;51.330;12.374;2022-10-04T23:03:45;12.20;1.00
12438;DHT22;6283;51.330;12.374;2022-10-04T23:06:11;12.40;1.00
12438;DHT22;6283;51.330;12.374;2022-10-04T23:08:40;12.20;1.00
12438;DHT22;6283;51.330;12.374;2022-10-04T23:11:07;12.20;1.00
12438;DHT22;6283;51.330;12.374;2022-10-04T23:13:32;12.00;1.00
12438;DHT22;6283;51.330;12.374;2022-10-04T23:16:05;12.50;1.00
12438;DHT22;6283;51.330;12.374;2022-10-04T23:18:33;12.40;1.00
12438;DHT22;6283;51.330;12.374;2022-10-04T23:21:00;12.10;1.00
12438;DHT22;6283;51.330;12.374;2022-10-04T23:23:27;12.10;1.00
12438;DHT22;6283;51.330;12.374;2022-10-04T23:25:53;12.30;1.00
12438;DHT22;6283;51.330;12.374;2022-10-04T23:28:19;12.10;1.00
12438;DHT22;6283;51.330;12.374;2022-10-04T23:31:01;12.10;1.00
12438;DHT22;6283;51.330;12.374;2022-10-04T23:33:29;12.20;1.00
12438;DHT22;6283;51.330;12.374;2022-10-04T23:35:54;12.30;1.00
12438;DHT22;6283;51.330;12.374;2022-10-04T23:38:22;12.30;1.00
12438;DHT22;6283;51.330;12.374;2022-10-04T23:40:49;12.00;1.00
12438;DHT22;6283;51.330;12.374;2022-10-04T23:43:19;11.90;1.00
12438;DHT22;6283;51.330;12.374;2022-10-04T23:45:45;12.00;1.00
12438;DHT22;6283;51.330;12.374;2022-10-04T23:48:18;12.10;1.00
12438;DHT22;6283;51.330;12.374;2022-10-04T23:50:45;11.90;1.00
12438;DHT22;6283;51.330;12.374;2022-10-04T23:53:22;12.20;1.00
12438;DHT22;6283;51.330;12.374;2022-10-04T23:55:48;12.10;1.00
12438;DHT22;6283;51.330;12.374;2022-10-04T23:58:16;12.00;1.00
